sensor_id;sensor_type;location;lat;lon;timestamp;P1;durP1;ratioP1;P2;durP2;ratioP2
36259;SDS011;22296;50.824;5.644;2023-08-07T00:02:00;3.58;;;1.40;;
36259;SDS011;22296;50.824;5.644;2023-08-07T00:04:27;3.20;;;1.40;;
36259;SDS011;22296;50.824;5.644;2023-08-07T00:06:54;4.15;;;1.60;;
36259;SDS011;22296;50.824;5.644;2023-08-07T00:09:21;4.93;;;1.90;;
36259;SDS011;22296;50.824;5.644;2023-08-07T00:11:48;3.40;;;1.58;;
36259;SDS011;22296;50.824;5.644;2023-08-07T00:14:15;5.22;;;1.75;;
36259;SDS011;22296;50.824;5.644;2023-08-07T00:16:42;4.35;;;1.60;;
36259;SDS011;22296;50.824;5.644;2023-08-07T00:19:10;3.88;;;1.77;;
36259;SDS011;22296;50.824;5.644;2023-08-07T00:21:37;4.35;;;1.77;;
36259;SDS011;22296;50.824;5.644;2023-08-07T00:24:05;3.72;;;1.42;;
36259;SDS011;22296;50.824;5.644;2023-08-07T00:26:32;5.00;;;1.40;;
36259;SDS011;22296;50.824;5.644;2023-08-07T00:28:59;4.90;;;1.73;;
36259;SDS011;22296;50.824;5.644;2023-08-07T00:31:26;3.83;;;1.55;;
36259;SDS011;22296;50.824;5.644;2023-08-07T00:33:57;3.13;;;1.30;;
36259;SDS011;22296;50.824;5.644;2023-08-07T00:36:24;4.15;;;1.50;;
36259;SDS011;22296;50.824;5.644;2023-08-07T00:38:54;4.65;;;1.60;;
36259;SDS011;22296;50.824;5.644;2023-08-07T00:41:22;4.50;;;1.38;;
36259;SDS011;22296;50.824;5.644;2023-08-07T00:43:49;2.65;;;1.40;;
36259;SDS011;22296;50.824;5.644;2023-08-07T00:46:15;4.28;;;1.60;;
36259;SDS011;22296;50.824;5.644;2023-08-07T00:48:43;2.92;;;1.45;;
36259;SDS011;22296;50.824;5.644;2023-08-07T00:51:10;3.80;;;1.50;;
36259;SDS011;22296;50.824;5.644;2023-08-07T00:53:38;2.60;;;1.45;;
36259;SDS011;22296;50.824;5.644;2023-08-07T00:56:06;3.40;;;1.60;;
36259;SDS011;22296;50.824;5.644;2023-08-07T00:58:34;2.90;;;1.38;;
36259;SDS011;22296;50.824;5.644;2023-08-07T01:01:01;3.97;;;1.27;;
36259;SDS011;22296;50.824;5.644;2023-08-07T01:03:28;3.28;;;1.45;;
36259;SDS011;22296;50.824;5.644;2023-08-07T01:05:55;4.95;;;1.60;;
36259;SDS011;22296;50.824;5.644;2023-08-07T01:08:23;6.47;;;1.30;;
36259;SDS011;22296;50.824;5.644;2023-08-07T01:13:28;3.17;;;1.63;;
36259;SDS011;22296;50.824;5.644;2023-08-07T01:16:04;2.88;;;1.48;;
36259;SDS011;22296;50.824;5.644;2023-08-07T01:18:37;2.95;;;1.50;;
36259;SDS011;22296;50.824;5.644;2023-08-07T01:21:05;3.43;;;1.30;;
36259;SDS011;22296;50.824;5.644;2023-08-07T01:23:32;3.58;;;1.55;;
36259;SDS011;22296;50.824;5.644;2023-08-07T01:25:59;4.10;;;1.65;;
36259;SDS011;22296;50.824;5.644;2023-08-07T01:28:33;4.53;;;1.55;;
36259;SDS011;22296;50.824;5.644;2023-08-07T01:31:05;5.40;;;1.52;;
36259;SDS011;22296;50.824;5.644;2023-08-07T01:33:57;5.55;;;1.33;;
36259;SDS011;22296;50.824;5.644;2023-08-07T01:36:27;2.92;;;1.40;;
36259;SDS011;22296;50.824;5.644;2023-08-07T01:38:57;2.25;;;1.52;;
36259;SDS011;22296;50.824;5.644;2023-08-07T01:41:25;4.25;;;1.52;;
36259;SDS011;22296;50.824;5.644;2023-08-07T01:43:52;3.38;;;1.35;;
36259;SDS011;22296;50.824;5.644;2023-08-07T01:46:20;4.70;;;1.52;;
36259;SDS011;22296;50.824;5.644;2023-08-07T01:48:47;4.38;;;1.45;;
36259;SDS011;22296;50.824;5.644;2023-08-07T01:51:14;2.47;;;1.40;;
36259;SDS011;22296;50.824;5.644;2023-08-07T01:53:41;3.95;;;1.40;;
36259;SDS011;22296;50.824;5.644;2023-08-07T01:56:08;4.97;;;1.63;;
36259;SDS011;22296;50.824;5.644;2023-08-07T01:58:35;5.10;;;1.67;;
36259;SDS011;22296;50.824;5.644;2023-08-07T02:01:02;4.75;;;1.48;;
36259;SDS011;22296;50.824;5.644;2023-08-07T02:03:29;4.40;;;1.70;;
36259;SDS011;22296;50.824;5.644;2023-08-07T02:05:56;3.97;;;1.40;;
36259;SDS011;22296;50.824;5.644;2023-08-07T02:08:24;3.97;;;1.60;;
36259;SDS011;22296;50.824;5.644;2023-08-07T02:10:50;2.97;;;1.63;;
36259;SDS011;22296;50.824;5.644;2023-08-07T02:13:18;4.32;;;1.77;;
36259;SDS011;22296;50.824;5.644;2023-08-07T02:15:45;4.47;;;1.42;;
36259;SDS011;22296;50.824;5.644;2023-08-07T02:18:12;4.43;;;1.70;;
36259;SDS011;22296;50.824;5.644;2023-08-07T02:20:38;5.00;;;1.38;;
36259;SDS011;22296;50.824;5.644;2023-08-07T02:23:05;4.85;;;1.58;;
36259;SDS011;22296;50.824;5.644;2023-08-07T02:25:32;3.42;;;1.52;;
36259;SDS011;22296;50.824;5.644;2023-08-07T02:27:59;3.78;;;1.70;;
36259;SDS011;22296;50.824;5.644;2023-08-07T02:30:26;3.95;;;1.58;;
36259;SDS011;22296;50.824;5.644;2023-08-07T02:32:52;3.65;;;1.58;;
36259;SDS011;22296;50.824;5.644;2023-08-07T02:35:20;5.50;;;1.50;;
36259;SDS011;22296;50.824;5.644;2023-08-07T02:37:47;3.55;;;1.35;;
36259;SDS011;22296;50.824;5.644;2023-08-07T02:40:13;2.88;;;1.50;;
36259;SDS011;22296;50.824;5.644;2023-08-07T02:42:41;5.47;;;1.60;;
36259;SDS011;22296;50.824;5.644;2023-08-07T02:45:09;2.53;;;1.40;;
36259;SDS011;22296;50.824;5.644;2023-08-07T02:47:36;3.53;;;1.48;;
36259;SDS011;22296;50.824;5.644;2023-08-07T02:50:03;3.08;;;1.48;;
36259;SDS011;22296;50.824;5.644;2023-08-07T02:52:30;4.97;;;1.70;;
36259;SDS011;22296;50.824;5.644;2023-08-07T02:54:57;2.55;;;1.30;;
36259;SDS011;22296;50.824;5.644;2023-08-07T02:57:24;4.93;;;1.58;;
36259;SDS011;22296;50.824;5.644;2023-08-07T02:59:51;2.60;;;1.33;;
36259;SDS011;22296;50.824;5.644;2023-08-07T03:02:18;2.75;;;1.40;;
36259;SDS011;22296;50.824;5.644;2023-08-07T03:04:45;3.75;;;1.52;;
36259;SDS011;22296;50.824;5.644;2023-08-07T03:07:11;4.57;;;2.00;;
36259;SDS011;22296;50.824;5.644;2023-08-07T03:09:38;3.17;;;1.40;;
36259;SDS011;22296;50.824;5.644;2023-08-07T03:12:05;4.35;;;1.30;;
36259;SDS011;22296;50.824;5.644;2023-08-07T03:14:33;4.20;;;1.60;;
36259;SDS011;22296;50.824;5.644;2023-08-07T03:17:01;3.25;;;1.27;;
36259;SDS011;22296;50.824;5.644;2023-08-07T03:19:27;2.72;;;1.90;;
36259;SDS011;22296;50.824;5.644;2023-08-07T03:21:54;2.03;;;1.50;;
36259;SDS011;22296;50.824;5.644;2023-08-07T03:24:21;2.30;;;1.27;;
36259;SDS011;22296;50.824;5.644;2023-08-07T03:26:48;3.55;;;1.63;;
36259;SDS011;22296;50.824;5.644;2023-08-07T03:29:15;3.65;;;1.40;;
36259;SDS011;22296;50.824;5.644;2023-08-07T03:31:43;3.63;;;1.50;;
36259;SDS011;22296;50.824;5.644;2023-08-07T03:34:11;2.25;;;1.50;;
36259;SDS011;22296;50.824;5.644;2023-08-07T03:36:37;2.78;;;1.20;;
36259;SDS011;22296;50.824;5.644;2023-08-07T03:39:04;2.38;;;1.38;;
36259;SDS011;22296;50.824;5.644;2023-08-07T03:41:31;4.43;;;1.48;;
36259;SDS011;22296;50.824;5.644;2023-08-07T03:43:58;2.85;;;1.33;;
36259;SDS011;22296;50.824;5.644;2023-08-07T03:46:25;2.50;;;1.30;;
36259;SDS011;22296;50.824;5.644;2023-08-07T03:48:52;3.10;;;1.20;;
36259;SDS011;22296;50.824;5.644;2023-08-07T03:51:19;2.97;;;1.48;;
36259;SDS011;22296;50.824;5.644;2023-08-07T03:53:50;2.38;;;1.23;;
36259;SDS011;22296;50.824;5.644;2023-08-07T03:56:16;3.20;;;1.30;;
36259;SDS011;22296;50.824;5.644;2023-08-07T03:58:44;2.95;;;1.20;;
36259;SDS011;22296;50.824;5.644;2023-08-07T04:01:12;3.15;;;1.40;;
36259;SDS011;22296;50.824;5.644;2023-08-07T04:03:39;4.00;;;1.35;;
36259;SDS011;22296;50.824;5.644;2023-08-07T04:06:06;1.85;;;1.27;;
36259;SDS011;22296;50.824;5.644;2023-08-07T04:08:33;2.00;;;1.30;;
36259;SDS011;22296;50.824;5.644;2023-08-07T04:11:01;2.63;;;1.10;;
36259;SDS011;22296;50.824;5.644;2023-08-07T04:13:29;2.23;;;1.40;;
36259;SDS011;22296;50.824;5.644;2023-08-07T04:15:56;2.88;;;1.13;;
36259;SDS011;22296;50.824;5.644;2023-08-07T04:18:23;2.45;;;1.05;;
36259;SDS011;22296;50.824;5.644;2023-08-07T04:20:51;2.33;;;1.30;;
36259;SDS011;22296;50.824;5.644;2023-08-07T04:23:20;4.97;;;1.30;;
36259;SDS011;22296;50.824;5.644;2023-08-07T04:25:47;2.97;;;1.10;;
36259;SDS011;22296;50.824;5.644;2023-08-07T04:28:15;2.17;;;1.45;;
36259;SDS011;22296;50.824;5.644;2023-08-07T04:30:42;1.85;;;1.40;;
36259;SDS011;22296;50.824;5.644;2023-08-07T04:33:10;3.38;;;1.20;;
36259;SDS011;22296;50.824;5.644;2023-08-07T04:35:37;2.10;;;1.20;;
36259;SDS011;22296;50.824;5.644;2023-08-07T04:38:03;1.80;;;1.20;;
36259;SDS011;22296;50.824;5.644;2023-08-07T04:40:30;2.50;;;1.10;;
36259;SDS011;22296;50.824;5.644;2023-08-07T04:42:57;2.85;;;1.20;;
36259;SDS011;22296;50.824;5.644;2023-08-07T04:45:23;1.88;;;1.20;;
36259;SDS011;22296;50.824;5.644;2023-08-07T04:47:50;3.55;;;1.30;;
36259;SDS011;22296;50.824;5.644;2023-08-07T04:50:18;2.63;;;1.00;;
36259;SDS011;22296;50.824;5.644;2023-08-07T04:52:44;2.25;;;1.30;;
36259;SDS011;22296;50.824;5.644;2023-08-07T04:55:11;3.58;;;1.23;;
36259;SDS011;22296;50.824;5.644;2023-08-07T04:57:38;1.98;;;1.20;;
36259;SDS011;22296;50.824;5.644;2023-08-07T05:00:05;3.38;;;1.30;;
36259;SDS011;22296;50.824;5.644;2023-08-07T05:02:32;3.13;;;1.20;;
36259;SDS011;22296;50.824;5.644;2023-08-07T05:04:59;4.38;;;1.35;;
36259;SDS011;22296;50.824;5.644;2023-08-07T05:07:26;3.10;;;1.33;;
36259;SDS011;22296;50.824;5.644;2023-08-07T05:09:53;2.17;;;1.17;;
36259;SDS011;22296;50.824;5.644;2023-08-07T05:12:19;3.30;;;1.50;;
36259;SDS011;22296;50.824;5.644;2023-08-07T05:14:46;4.03;;;1.35;;
36259;SDS011;22296;50.824;5.644;2023-08-07T05:17:13;3.53;;;1.25;;
36259;SDS011;22296;50.824;5.644;2023-08-07T05:19:40;2.97;;;1.25;;
36259;SDS011;22296;50.824;5.644;2023-08-07T05:22:06;2.55;;;1.30;;
36259;SDS011;22296;50.824;5.644;2023-08-07T05:24:33;2.50;;;1.08;;
36259;SDS011;22296;50.824;5.644;2023-08-07T05:27:06;4.40;;;1.30;;
36259;SDS011;22296;50.824;5.644;2023-08-07T05:29:35;2.95;;;1.30;;
36259;SDS011;22296;50.824;5.644;2023-08-07T05:32:12;2.20;;;1.00;;
36259;SDS011;22296;50.824;5.644;2023-08-07T05:34:41;2.03;;;1.40;;
36259;SDS011;22296;50.824;5.644;2023-08-07T05:37:08;2.78;;;1.38;;
36259;SDS011;22296;50.824;5.644;2023-08-07T05:39:35;3.55;;;1.58;;
36259;SDS011;22296;50.824;5.644;2023-08-07T05:42:02;2.45;;;1.00;;
36259;SDS011;22296;50.824;5.644;2023-08-07T05:44:29;2.97;;;1.20;;
36259;SDS011;22296;50.824;5.644;2023-08-07T05:46:56;1.85;;;1.00;;
36259;SDS011;22296;50.824;5.644;2023-08-07T05:49:23;4.38;;;1.17;;
36259;SDS011;22296;50.824;5.644;2023-08-07T05:51:52;3.92;;;1.35;;
36259;SDS011;22296;50.824;5.644;2023-08-07T05:54:20;1.65;;;1.20;;
36259;SDS011;22296;50.824;5.644;2023-08-07T05:56:46;2.47;;;1.20;;
36259;SDS011;22296;50.824;5.644;2023-08-07T05:59:13;2.85;;;1.17;;
36259;SDS011;22296;50.824;5.644;2023-08-07T06:01:40;3.03;;;1.55;;
36259;SDS011;22296;50.824;5.644;2023-08-07T06:04:08;1.80;;;1.10;;
36259;SDS011;22296;50.824;5.644;2023-08-07T06:06:35;2.90;;;1.02;;
36259;SDS011;22296;50.824;5.644;2023-08-07T06:09:03;2.58;;;1.20;;
36259;SDS011;22296;50.824;5.644;2023-08-07T06:11:30;2.22;;;1.25;;
36259;SDS011;22296;50.824;5.644;2023-08-07T06:13:57;1.67;;;1.25;;
36259;SDS011;22296;50.824;5.644;2023-08-07T06:16:24;1.95;;;1.20;;
36259;SDS011;22296;50.824;5.644;2023-08-07T06:18:51;2.25;;;1.40;;
36259;SDS011;22296;50.824;5.644;2023-08-07T06:21:18;1.58;;;1.23;;
36259;SDS011;22296;50.824;5.644;2023-08-07T06:23:46;1.77;;;1.13;;
36259;SDS011;22296;50.824;5.644;2023-08-07T06:26:13;2.10;;;1.15;;
36259;SDS011;22296;50.824;5.644;2023-08-07T06:28:41;1.83;;;1.10;;
36259;SDS011;22296;50.824;5.644;2023-08-07T06:31:08;2.22;;;1.05;;
36259;SDS011;22296;50.824;5.644;2023-08-07T06:33:36;3.53;;;1.40;;
36259;SDS011;22296;50.824;5.644;2023-08-07T06:36:04;1.85;;;1.02;;
36259;SDS011;22296;50.824;5.644;2023-08-07T06:38:31;3.22;;;1.50;;
36259;SDS011;22296;50.824;5.644;2023-08-07T06:40:58;2.53;;;1.23;;
36259;SDS011;22296;50.824;5.644;2023-08-07T06:43:25;2.67;;;1.20;;
36259;SDS011;22296;50.824;5.644;2023-08-07T06:45:52;2.35;;;1.25;;
36259;SDS011;22296;50.824;5.644;2023-08-07T06:48:20;1.70;;;0.98;;
36259;SDS011;22296;50.824;5.644;2023-08-07T06:50:47;1.70;;;1.00;;
36259;SDS011;22296;50.824;5.644;2023-08-07T06:53:14;2.17;;;1.10;;
36259;SDS011;22296;50.824;5.644;2023-08-07T06:55:42;2.10;;;1.20;;
36259;SDS011;22296;50.824;5.644;2023-08-07T06:58:09;2.15;;;1.20;;
36259;SDS011;22296;50.824;5.644;2023-08-07T07:00:36;2.22;;;1.30;;
36259;SDS011;22296;50.824;5.644;2023-08-07T07:03:03;2.15;;;1.20;;
36259;SDS011;22296;50.824;5.644;2023-08-07T07:05:31;2.38;;;1.30;;
36259;SDS011;22296;50.824;5.644;2023-08-07T07:07:59;2.37;;;0.90;;
36259;SDS011;22296;50.824;5.644;2023-08-07T07:10:26;2.97;;;1.20;;
36259;SDS011;22296;50.824;5.644;2023-08-07T07:12:53;2.53;;;1.30;;
36259;SDS011;22296;50.824;5.644;2023-08-07T07:15:19;2.70;;;0.90;;
36259;SDS011;22296;50.824;5.644;2023-08-07T07:17:46;2.30;;;1.05;;
36259;SDS011;22296;50.824;5.644;2023-08-07T07:20:13;1.90;;;1.30;;
36259;SDS011;22296;50.824;5.644;2023-08-07T07:22:40;3.75;;;1.50;;
36259;SDS011;22296;50.824;5.644;2023-08-07T07:25:07;1.95;;;1.30;;
36259;SDS011;22296;50.824;5.644;2023-08-07T07:27:34;2.22;;;1.20;;
36259;SDS011;22296;50.824;5.644;2023-08-07T07:30:01;1.92;;;1.10;;
36259;SDS011;22296;50.824;5.644;2023-08-07T07:32:28;3.20;;;1.50;;
36259;SDS011;22296;50.824;5.644;2023-08-07T07:34:54;2.58;;;1.10;;
36259;SDS011;22296;50.824;5.644;2023-08-07T07:37:21;4.07;;;1.60;;
36259;SDS011;22296;50.824;5.644;2023-08-07T07:39:49;3.10;;;1.30;;
36259;SDS011;22296;50.824;5.644;2023-08-07T07:42:15;2.47;;;1.42;;
36259;SDS011;22296;50.824;5.644;2023-08-07T07:44:42;2.95;;;1.20;;
36259;SDS011;22296;50.824;5.644;2023-08-07T07:47:10;3.10;;;1.27;;
36259;SDS011;22296;50.824;5.644;2023-08-07T07:49:44;2.05;;;1.15;;
36259;SDS011;22296;50.824;5.644;2023-08-07T07:52:14;2.10;;;1.20;;
36259;SDS011;22296;50.824;5.644;2023-08-07T07:54:41;2.83;;;1.10;;
36259;SDS011;22296;50.824;5.644;2023-08-07T07:57:08;3.10;;;1.35;;
36259;SDS011;22296;50.824;5.644;2023-08-07T07:59:35;2.40;;;1.52;;
36259;SDS011;22296;50.824;5.644;2023-08-07T08:02:02;3.65;;;1.30;;
36259;SDS011;22296;50.824;5.644;2023-08-07T08:04:28;3.55;;;1.17;;
36259;SDS011;22296;50.824;5.644;2023-08-07T08:06:55;2.95;;;1.20;;
36259;SDS011;22296;50.824;5.644;2023-08-07T08:09:22;2.83;;;1.30;;
36259;SDS011;22296;50.824;5.644;2023-08-07T08:11:49;2.53;;;1.08;;
36259;SDS011;22296;50.824;5.644;2023-08-07T08:14:15;4.30;;;1.30;;
36259;SDS011;22296;50.824;5.644;2023-08-07T08:16:43;4.00;;;1.30;;
36259;SDS011;22296;50.824;5.644;2023-08-07T08:19:09;2.83;;;1.50;;
36259;SDS011;22296;50.824;5.644;2023-08-07T08:21:37;3.78;;;1.35;;
36259;SDS011;22296;50.824;5.644;2023-08-07T08:24:03;2.45;;;1.27;;
36259;SDS011;22296;50.824;5.644;2023-08-07T08:26:31;2.03;;;1.00;;
36259;SDS011;22296;50.824;5.644;2023-08-07T08:28:57;2.13;;;1.15;;
36259;SDS011;22296;50.824;5.644;2023-08-07T08:31:24;2.22;;;1.30;;
36259;SDS011;22296;50.824;5.644;2023-08-07T08:33:51;4.03;;;1.30;;
36259;SDS011;22296;50.824;5.644;2023-08-07T08:36:18;2.42;;;1.40;;
36259;SDS011;22296;50.824;5.644;2023-08-07T08:38:45;2.28;;;1.15;;
36259;SDS011;22296;50.824;5.644;2023-08-07T08:41:15;2.35;;;1.20;;
36259;SDS011;22296;50.824;5.644;2023-08-07T08:43:43;5.35;;;1.50;;
36259;SDS011;22296;50.824;5.644;2023-08-07T08:46:14;2.83;;;1.35;;
36259;SDS011;22296;50.824;5.644;2023-08-07T08:48:43;3.08;;;1.40;;
36259;SDS011;22296;50.824;5.644;2023-08-07T08:51:16;2.95;;;1.40;;
36259;SDS011;22296;50.824;5.644;2023-08-07T08:53:47;4.57;;;1.60;;
36259;SDS011;22296;50.824;5.644;2023-08-07T08:56:15;4.47;;;1.58;;
36259;SDS011;22296;50.824;5.644;2023-08-07T08:58:43;3.78;;;1.60;;
36259;SDS011;22296;50.824;5.644;2023-08-07T09:01:10;2.00;;;1.20;;
36259;SDS011;22296;50.824;5.644;2023-08-07T09:03:38;1.98;;;1.30;;
36259;SDS011;22296;50.824;5.644;2023-08-07T09:06:06;4.10;;;1.90;;
36259;SDS011;22296;50.824;5.644;2023-08-07T09:08:34;3.30;;;1.42;;
36259;SDS011;22296;50.824;5.644;2023-08-07T09:11:01;5.10;;;1.40;;
36259;SDS011;22296;50.824;5.644;2023-08-07T09:13:28;3.20;;;1.65;;
36259;SDS011;22296;50.824;5.644;2023-08-07T09:15:59;2.65;;;1.40;;
36259;SDS011;22296;50.824;5.644;2023-08-07T09:18:28;3.55;;;1.40;;
36259;SDS011;22296;50.824;5.644;2023-08-07T09:20:55;2.55;;;1.38;;
36259;SDS011;22296;50.824;5.644;2023-08-07T09:23:24;2.63;;;1.17;;
36259;SDS011;22296;50.824;5.644;2023-08-07T09:26:04;3.75;;;1.58;;
36259;SDS011;22296;50.824;5.644;2023-08-07T09:28:31;3.03;;;1.48;;
36259;SDS011;22296;50.824;5.644;2023-08-07T09:30:59;3.58;;;1.20;;
36259;SDS011;22296;50.824;5.644;2023-08-07T09:33:28;3.05;;;1.48;;
36259;SDS011;22296;50.824;5.644;2023-08-07T09:35:57;2.45;;;1.30;;
36259;SDS011;22296;50.824;5.644;2023-08-07T09:38:27;1.97;;;1.40;;
36259;SDS011;22296;50.824;5.644;2023-08-07T09:40:59;3.10;;;1.35;;
36259;SDS011;22296;50.824;5.644;2023-08-07T09:43:27;3.97;;;1.50;;
36259;SDS011;22296;50.824;5.644;2023-08-07T09:46:04;4.70;;;1.60;;
36259;SDS011;22296;50.824;5.644;2023-08-07T09:48:32;3.00;;;1.50;;
36259;SDS011;22296;50.824;5.644;2023-08-07T09:51:06;3.63;;;1.63;;
36259;SDS011;22296;50.824;5.644;2023-08-07T09:53:33;2.22;;;1.50;;
36259;SDS011;22296;50.824;5.644;2023-08-07T09:56:00;4.30;;;1.60;;
36259;SDS011;22296;50.824;5.644;2023-08-07T09:58:28;3.42;;;1.75;;
36259;SDS011;22296;50.824;5.644;2023-08-07T10:00:55;4.00;;;1.63;;
36259;SDS011;22296;50.824;5.644;2023-08-07T10:03:26;2.88;;;1.60;;
36259;SDS011;22296;50.824;5.644;2023-08-07T10:05:53;3.05;;;1.77;;
36259;SDS011;22296;50.824;5.644;2023-08-07T10:08:21;4.18;;;1.90;;
36259;SDS011;22296;50.824;5.644;2023-08-07T10:10:48;4.45;;;1.92;;
36259;SDS011;22296;50.824;5.644;2023-08-07T10:13:15;2.67;;;1.60;;
36259;SDS011;22296;50.824;5.644;2023-08-07T10:15:45;4.43;;;2.25;;
36259;SDS011;22296;50.824;5.644;2023-08-07T10:18:13;5.90;;;2.20;;
36259;SDS011;22296;50.824;5.644;2023-08-07T10:20:43;3.25;;;2.08;;
36259;SDS011;22296;50.824;5.644;2023-08-07T10:23:11;4.07;;;2.20;;
36259;SDS011;22296;50.824;5.644;2023-08-07T10:25:39;4.50;;;2.03;;
36259;SDS011;22296;50.824;5.644;2023-08-07T10:28:11;5.95;;;2.63;;
36259;SDS011;22296;50.824;5.644;2023-08-07T10:30:41;4.13;;;2.00;;
36259;SDS011;22296;50.824;5.644;2023-08-07T10:33:09;4.40;;;2.08;;
36259;SDS011;22296;50.824;5.644;2023-08-07T10:35:39;4.10;;;2.28;;
36259;SDS011;22296;50.824;5.644;2023-08-07T10:38:13;4.85;;;2.20;;
36259;SDS011;22296;50.824;5.644;2023-08-07T10:40:58;4.13;;;2.53;;
36259;SDS011;22296;50.824;5.644;2023-08-07T10:43:26;3.15;;;2.05;;
36259;SDS011;22296;50.824;5.644;2023-08-07T10:45:54;4.68;;;2.72;;
36259;SDS011;22296;50.824;5.644;2023-08-07T10:48:29;3.13;;;2.20;;
36259;SDS011;22296;50.824;5.644;2023-08-07T10:50:56;4.55;;;2.30;;
36259;SDS011;22296;50.824;5.644;2023-08-07T10:53:33;5.15;;;2.38;;
36259;SDS011;22296;50.824;5.644;2023-08-07T10:56:06;5.22;;;2.38;;
36259;SDS011;22296;50.824;5.644;2023-08-07T11:01:24;4.27;;;2.30;;
36259;SDS011;22296;50.824;5.644;2023-08-07T11:04:07;4.28;;;2.20;;
36259;SDS011;22296;50.824;5.644;2023-08-07T11:09:03;3.72;;;2.20;;
36259;SDS011;22296;50.824;5.644;2023-08-07T11:11:38;3.67;;;2.53;;
36259;SDS011;22296;50.824;5.644;2023-08-07T11:14:07;6.47;;;2.72;;
36259;SDS011;22296;50.824;5.644;2023-08-07T11:16:35;5.30;;;1.97;;
36259;SDS011;22296;50.824;5.644;2023-08-07T11:19:03;2.65;;;1.85;;
36259;SDS011;22296;50.824;5.644;2023-08-07T11:21:31;5.25;;;2.45;;
36259;SDS011;22296;50.824;5.644;2023-08-07T11:24:00;6.18;;;2.10;;
36259;SDS011;22296;50.824;5.644;2023-08-07T11:26:28;4.82;;;2.80;;
36259;SDS011;22296;50.824;5.644;2023-08-07T11:28:55;3.58;;;2.30;;
36259;SDS011;22296;50.824;5.644;2023-08-07T11:31:22;5.10;;;2.00;;
36259;SDS011;22296;50.824;5.644;2023-08-07T11:33:51;6.07;;;2.00;;
36259;SDS011;22296;50.824;5.644;2023-08-07T11:36:19;2.65;;;2.13;;
36259;SDS011;22296;50.824;5.644;2023-08-07T11:38:46;3.25;;;2.00;;
36259;SDS011;22296;50.824;5.644;2023-08-07T11:41:15;5.55;;;2.08;;
36259;SDS011;22296;50.824;5.644;2023-08-07T11:43:43;3.65;;;2.00;;
36259;SDS011;22296;50.824;5.644;2023-08-07T11:46:12;3.40;;;1.88;;
36259;SDS011;22296;50.824;5.644;2023-08-07T11:48:41;4.18;;;2.00;;
36259;SDS011;22296;50.824;5.644;2023-08-07T11:51:09;3.33;;;1.58;;
36259;SDS011;22296;50.824;5.644;2023-08-07T11:53:37;3.70;;;1.63;;
36259;SDS011;22296;50.824;5.644;2023-08-07T11:56:09;5.40;;;1.85;;
36259;SDS011;22296;50.824;5.644;2023-08-07T11:58:40;3.05;;;1.73;;
36259;SDS011;22296;50.824;5.644;2023-08-07T12:01:20;3.60;;;1.73;;
36259;SDS011;22296;50.824;5.644;2023-08-07T12:04:22;3.78;;;1.77;;
36259;SDS011;22296;50.824;5.644;2023-08-07T12:06:53;3.38;;;1.70;;
36259;SDS011;22296;50.824;5.644;2023-08-07T12:09:22;2.72;;;1.60;;
36259;SDS011;22296;50.824;5.644;2023-08-07T12:11:49;3.65;;;1.88;;
36259;SDS011;22296;50.824;5.644;2023-08-07T12:14:16;5.00;;;2.05;;
36259;SDS011;22296;50.824;5.644;2023-08-07T12:16:44;4.70;;;2.00;;
36259;SDS011;22296;50.824;5.644;2023-08-07T12:19:14;4.75;;;1.60;;
36259;SDS011;22296;50.824;5.644;2023-08-07T12:21:41;4.85;;;1.73;;
36259;SDS011;22296;50.824;5.644;2023-08-07T12:24:10;3.20;;;1.58;;
36259;SDS011;22296;50.824;5.644;2023-08-07T12:26:39;2.63;;;1.70;;
36259;SDS011;22296;50.824;5.644;2023-08-07T12:29:06;3.88;;;1.77;;
36259;SDS011;22296;50.824;5.644;2023-08-07T12:31:33;4.05;;;1.63;;
36259;SDS011;22296;50.824;5.644;2023-08-07T12:34:00;3.38;;;1.80;;
36259;SDS011;22296;50.824;5.644;2023-08-07T12:36:46;5.20;;;2.10;;
36259;SDS011;22296;50.824;5.644;2023-08-07T12:39:13;5.35;;;2.00;;
36259;SDS011;22296;50.824;5.644;2023-08-07T12:41:41;3.28;;;1.40;;
36259;SDS011;22296;50.824;5.644;2023-08-07T12:44:28;4.20;;;1.60;;
36259;SDS011;22296;50.824;5.644;2023-08-07T12:46:55;5.18;;;1.40;;
36259;SDS011;22296;50.824;5.644;2023-08-07T12:49:23;3.22;;;1.75;;
36259;SDS011;22296;50.824;5.644;2023-08-07T12:51:51;5.63;;;1.92;;
36259;SDS011;22296;50.824;5.644;2023-08-07T12:54:19;5.70;;;1.70;;
36259;SDS011;22296;50.824;5.644;2023-08-07T12:56:46;3.83;;;1.58;;
36259;SDS011;22296;50.824;5.644;2023-08-07T12:59:13;2.22;;;1.83;;
36259;SDS011;22296;50.824;5.644;2023-08-07T13:01:39;4.85;;;1.40;;
36259;SDS011;22296;50.824;5.644;2023-08-07T13:04:06;4.38;;;1.75;;
36259;SDS011;22296;50.824;5.644;2023-08-07T13:06:34;2.10;;;1.47;;
36259;SDS011;22296;50.824;5.644;2023-08-07T13:09:01;3.10;;;1.60;;
36259;SDS011;22296;50.824;5.644;2023-08-07T13:11:28;3.05;;;1.73;;
36259;SDS011;22296;50.824;5.644;2023-08-07T13:13:55;3.17;;;1.45;;
36259;SDS011;22296;50.824;5.644;2023-08-07T13:16:22;2.22;;;1.38;;
36259;SDS011;22296;50.824;5.644;2023-08-07T13:18:50;2.67;;;1.50;;
36259;SDS011;22296;50.824;5.644;2023-08-07T13:21:16;4.65;;;1.60;;
36259;SDS011;22296;50.824;5.644;2023-08-07T13:23:43;2.60;;;1.30;;
36259;SDS011;22296;50.824;5.644;2023-08-07T13:26:10;2.58;;;1.33;;
36259;SDS011;22296;50.824;5.644;2023-08-07T13:28:36;5.07;;;1.35;;
36259;SDS011;22296;50.824;5.644;2023-08-07T13:31:03;2.53;;;1.58;;
36259;SDS011;22296;50.824;5.644;2023-08-07T13:33:30;3.72;;;1.63;;
36259;SDS011;22296;50.824;5.644;2023-08-07T13:35:57;2.70;;;1.40;;
36259;SDS011;22296;50.824;5.644;2023-08-07T13:38:24;2.20;;;1.17;;
36259;SDS011;22296;50.824;5.644;2023-08-07T13:40:51;2.40;;;1.20;;
36259;SDS011;22296;50.824;5.644;2023-08-07T13:43:18;2.53;;;1.10;;
36259;SDS011;22296;50.824;5.644;2023-08-07T13:45:44;4.00;;;1.40;;
36259;SDS011;22296;50.824;5.644;2023-08-07T13:48:12;2.83;;;1.45;;
36259;SDS011;22296;50.824;5.644;2023-08-07T13:50:39;2.28;;;1.40;;
36259;SDS011;22296;50.824;5.644;2023-08-07T13:53:06;2.95;;;1.50;;
36259;SDS011;22296;50.824;5.644;2023-08-07T13:55:40;1.83;;;1.20;;
36259;SDS011;22296;50.824;5.644;2023-08-07T13:58:07;3.00;;;1.50;;
36259;SDS011;22296;50.824;5.644;2023-08-07T14:00:36;1.55;;;1.10;;
36259;SDS011;22296;50.824;5.644;2023-08-07T14:03:03;1.75;;;1.30;;
36259;SDS011;22296;50.824;5.644;2023-08-07T14:05:30;3.15;;;1.38;;
36259;SDS011;22296;50.824;5.644;2023-08-07T14:07:57;4.72;;;1.50;;
36259;SDS011;22296;50.824;5.644;2023-08-07T14:10:24;2.58;;;1.23;;
36259;SDS011;22296;50.824;5.644;2023-08-07T14:12:51;2.42;;;1.20;;
36259;SDS011;22296;50.824;5.644;2023-08-07T14:15:18;1.83;;;1.20;;
36259;SDS011;22296;50.824;5.644;2023-08-07T14:17:45;1.92;;;1.25;;
36259;SDS011;22296;50.824;5.644;2023-08-07T14:20:11;1.40;;;1.02;;
36259;SDS011;22296;50.824;5.644;2023-08-07T14:22:38;1.85;;;1.20;;
36259;SDS011;22296;50.824;5.644;2023-08-07T14:25:07;1.33;;;1.08;;
36259;SDS011;22296;50.824;5.644;2023-08-07T14:27:34;2.33;;;1.40;;
36259;SDS011;22296;50.824;5.644;2023-08-07T14:30:01;2.33;;;1.30;;
36259;SDS011;22296;50.824;5.644;2023-08-07T14:32:29;2.30;;;1.30;;
36259;SDS011;22296;50.824;5.644;2023-08-07T14:34:55;2.90;;;1.25;;
36259;SDS011;22296;50.824;5.644;2023-08-07T14:37:22;2.25;;;1.10;;
36259;SDS011;22296;50.824;5.644;2023-08-07T14:39:49;1.67;;;1.38;;
36259;SDS011;22296;50.824;5.644;2023-08-07T14:42:16;1.95;;;1.30;;
36259;SDS011;22296;50.824;5.644;2023-08-07T14:44:43;1.50;;;1.30;;
36259;SDS011;22296;50.824;5.644;2023-08-07T14:47:10;2.05;;;1.00;;
36259;SDS011;22296;50.824;5.644;2023-08-07T14:49:37;1.33;;;1.20;;
36259;SDS011;22296;50.824;5.644;2023-08-07T14:52:04;1.73;;;1.30;;
36259;SDS011;22296;50.824;5.644;2023-08-07T14:54:32;1.92;;;0.90;;
36259;SDS011;22296;50.824;5.644;2023-08-07T14:56:59;2.40;;;1.30;;
36259;SDS011;22296;50.824;5.644;2023-08-07T14:59:26;2.72;;;1.00;;
36259;SDS011;22296;50.824;5.644;2023-08-07T15:01:53;1.83;;;1.20;;